createdAt,value
2017-06-22T00:02:21.929Z,55.30
2017-06-22T00:04:50.113Z,55.50
2017-06-22T00:07:18.343Z,55.60
2017-06-22T00:09:45.742Z,55.40
2017-06-22T00:12:13.937Z,55.60
2017-06-22T00:14:41.417Z,55.60
2017-06-22T00:17:08.871Z,55.60
2017-06-22T00:19:36.330Z,55.70
2017-06-22T00:22:03.761Z,55.70
2017-06-22T00:24:31.237Z,55.70
2017-06-22T00:26:58.702Z,55.90
2017-06-22T00:29:26.153Z,56.00
2017-06-22T00:31:53.590Z,56.00
2017-06-22T00:34:21.018Z,56.00
2017-06-22T00:36:49.205Z,56.00
2017-06-22T00:39:16.631Z,56.00
2017-06-22T00:41:44.146Z,56.00
2017-06-22T00:44:11.565Z,56.00
2017-06-22T00:46:38.988Z,56.00
2017-06-22T00:49:06.413Z,56.10
2017-06-22T00:51:33.834Z,56.10
2017-06-22T00:54:01.263Z,56.20
2017-06-22T00:56:28.685Z,56.20
2017-06-22T00:58:56.142Z,56.40
2017-06-22T01:01:23.566Z,56.40
2017-06-22T01:03:51.049Z,56.50
2017-06-22T01:06:18.469Z,56.50
2017-06-22T01:08:45.966Z,56.60
2017-06-22T01:11:13.381Z,56.50
2017-06-22T01:13:40.817Z,56.60
2017-06-22T01:16:09.001Z,56.80
2017-06-22T01:18:37.197Z,56.80
2017-06-22T01:21:04.682Z,57.30
2017-06-22T01:23:32.105Z,56.80
2017-06-22T01:25:59.530Z,56.80
2017-06-22T01:28:27.757Z,56.80
2017-06-22T01:30:55.180Z,56.80
2017-06-22T01:33:22.678Z,56.80
2017-06-22T01:35:50.125Z,56.80
2017-06-22T01:38:17.585Z,56.90
2017-06-22T01:40:45.013Z,56.90
2017-06-22T01:43:12.496Z,56.80
2017-06-22T01:45:39.949Z,56.80
2017-06-22T01:48:07.366Z,56.90
2017-06-22T01:50:35.582Z,57.10
2017-06-22T01:53:03.037Z,57.00
2017-06-22T01:55:30.473Z,57.10
2017-06-22T01:57:57.889Z,57.10
2017-06-22T02:00:26.094Z,57.10
2017-06-22T02:02:53.518Z,57.10
2017-06-22T02:05:21.014Z,57.30
2017-06-22T02:07:48.438Z,57.40
2017-06-22T02:10:16.633Z,57.50
2017-06-22T02:12:44.059Z,57.50
2017-06-22T02:15:11.570Z,57.40
2017-06-22T02:17:38.989Z,57.50
2017-06-22T02:20:06.487Z,57.50
2017-06-22T02:22:33.941Z,57.50
2017-06-22T02:25:01.394Z,57.40
2017-06-22T02:27:28.853Z,57.50
2017-06-22T02:29:56.301Z,57.60
2017-06-22T02:32:24.177Z,57.60
2017-06-22T02:34:51.594Z,57.60
2017-06-22T02:37:19.089Z,57.60
2017-06-22T02:39:46.505Z,57.60
2017-06-22T02:42:14.298Z,57.60
2017-06-22T02:44:41.761Z,57.80
2017-06-22T02:47:09.222Z,57.90
2017-06-22T02:49:36.642Z,57.90
2017-06-22T02:52:04.125Z,57.90
2017-06-22T02:54:31.588Z,58.50
2017-06-22T02:56:59.017Z,58.00
2017-06-22T02:59:26.442Z,58.00
2017-06-22T03:01:54.646Z,58.00
2017-06-22T03:04:22.061Z,58.00
2017-06-22T03:06:49.590Z,58.20
2017-06-22T03:09:17.009Z,58.10
2017-06-22T03:11:44.437Z,58.10
2017-06-22T03:14:12.620Z,58.20
2017-06-22T03:16:40.837Z,58.20
2017-06-22T03:19:08.301Z,58.20
2017-06-22T03:21:35.729Z,58.10
2017-06-22T03:24:03.206Z,58.10
2017-06-22T03:26:30.670Z,58.10
2017-06-22T03:28:58.122Z,58.20
2017-06-22T03:31:26.089Z,58.30
2017-06-22T03:33:53.549Z,58.30
2017-06-22T03:36:20.965Z,58.20
2017-06-22T03:38:48.462Z,58.20
2017-06-22T03:41:15.918Z,58.00
2017-06-22T03:43:43.369Z,57.90
2017-06-22T03:46:11.239Z,57.90
2017-06-22T03:48:38.689Z,57.90
2017-06-22T03:51:06.150Z,58.00
2017-06-22T03:53:33.582Z,58.10
2017-06-22T03:56:01.057Z,58.10
2017-06-22T03:58:28.494Z,58.20
2017-06-22T04:00:55.973Z,58.10
2017-06-22T04:03:23.405Z,58.10
2017-06-22T04:05:50.830Z,58.20
2017-06-22T04:08:19.054Z,59.00
2017-06-22T04:10:46.473Z,58.40
2017-06-22T04:13:13.965Z,58.50
2017-06-22T04:15:41.904Z,58.40
2017-06-22T04:18:09.393Z,58.40
2017-06-22T04:20:36.809Z,58.30
2017-06-22T04:23:04.306Z,58.30
2017-06-22T04:25:31.737Z,58.20
2017-06-22T04:27:59.217Z,58.40
2017-06-22T04:30:26.645Z,58.50
2017-06-22T04:32:54.417Z,58.50
2017-06-22T04:35:21.893Z,58.80
2017-06-22T04:37:49.313Z,58.90
2017-06-22T04:40:16.801Z,58.90
2017-06-22T04:42:44.225Z,59.10
2017-06-22T04:45:12.010Z,59.30
2017-06-22T04:47:39.486Z,59.40
2017-06-22T04:50:06.913Z,59.50
2017-06-22T04:52:34.333Z,59.60
2017-06-22T04:55:02.566Z,59.80
2017-06-22T04:57:29.989Z,60.00
2017-06-22T04:59:57.426Z,60.20
2017-06-22T05:02:25.652Z,60.90
2017-06-22T05:04:53.109Z,60.80
2017-06-22T05:07:20.567Z,61.10
2017-06-22T05:09:48.017Z,61.40
2017-06-22T05:12:15.441Z,61.50
2017-06-22T05:14:42.865Z,61.60
2017-06-22T05:17:10.382Z,61.80
2017-06-22T05:19:37.805Z,61.90
2017-06-22T05:22:05.300Z,62.00
2017-06-22T05:24:32.717Z,61.80
2017-06-22T05:27:00.427Z,62.00
2017-06-22T05:29:27.825Z,61.60
2017-06-22T05:31:56.078Z,61.30
2017-06-22T05:34:23.600Z,61.30
2017-06-22T05:36:51.066Z,61.20
2017-06-22T05:39:18.514Z,61.60
2017-06-22T05:41:45.970Z,61.40
2017-06-22T05:44:13.425Z,61.30
2017-06-22T05:46:40.877Z,61.20
2017-06-22T05:49:08.337Z,61.00
2017-06-22T05:51:35.769Z,61.20
2017-06-22T05:54:03.189Z,61.50
2017-06-22T05:56:31.417Z,61.40
2017-06-22T05:58:58.841Z,61.40
2017-06-22T06:01:26.338Z,61.10
2017-06-22T06:03:53.789Z,61.20
2017-06-22T06:06:21.350Z,61.30
2017-06-22T06:08:48.774Z,62.00
2017-06-22T06:11:16.201Z,61.00
2017-06-22T06:13:43.689Z,61.70
2017-06-22T06:16:11.119Z,61.00
2017-06-22T06:18:39.317Z,61.80
2017-06-22T06:21:07.097Z,61.00
2017-06-22T06:23:34.594Z,61.00
2017-06-22T06:26:02.009Z,61.10
2017-06-22T06:28:29.477Z,61.20
2017-06-22T06:30:56.929Z,61.30
2017-06-22T06:33:24.489Z,61.30
2017-06-22T06:35:51.908Z,61.40
2017-06-22T06:38:19.404Z,61.30
2017-06-22T06:40:46.834Z,61.40
2017-06-22T06:43:14.313Z,61.50
2017-06-22T06:45:41.733Z,61.50
2017-06-22T06:48:09.173Z,61.70
2017-06-22T06:50:37.401Z,61.80
2017-06-22T06:53:04.862Z,61.80
2017-06-22T06:55:32.314Z,61.80
2017-06-22T06:57:59.754Z,61.90
2017-06-22T07:00:27.225Z,62.00
2017-06-22T07:02:54.654Z,62.00
2017-06-22T07:05:22.093Z,62.00
2017-06-22T07:07:50.299Z,62.10
2017-06-22T07:10:17.717Z,62.10
2017-06-22T07:12:45.909Z,62.50
2017-06-22T07:15:13.395Z,62.40
2017-06-22T07:17:40.854Z,62.60
2017-06-22T07:20:08.289Z,62.60
2017-06-22T07:22:36.180Z,62.70
2017-06-22T07:25:03.653Z,62.60
2017-06-22T07:27:31.074Z,62.50
2017-06-22T07:29:58.834Z,62.60
2017-06-22T07:32:26.253Z,62.60
2017-06-22T07:34:54.473Z,62.80
2017-06-22T07:37:21.938Z,62.70
2017-06-22T07:39:49.392Z,62.80
2017-06-22T07:42:16.846Z,62.80
2017-06-22T07:44:44.286Z,62.90
2017-06-22T07:47:11.701Z,62.80
2017-06-22T07:49:39.901Z,63.00
2017-06-22T07:52:07.330Z,63.00
2017-06-22T07:54:35.537Z,63.00
2017-06-22T07:57:02.966Z,63.00
2017-06-22T07:59:31.158Z,63.00
2017-06-22T08:01:58.641Z,63.00
2017-06-22T08:04:26.065Z,62.90
2017-06-22T08:06:53.501Z,63.10
2017-06-22T08:09:21.697Z,63.00
2017-06-22T08:11:49.190Z,63.00
2017-06-22T08:14:16.609Z,62.90
2017-06-22T08:16:44.049Z,63.20
2017-06-22T08:19:12.237Z,63.50
2017-06-22T08:21:39.673Z,63.40
2017-06-22T08:24:07.902Z,63.80
2017-06-22T08:26:35.360Z,63.70
2017-06-22T08:29:02.789Z,63.70
2017-06-22T08:31:30.265Z,63.80
2017-06-22T08:33:58.133Z,63.80
2017-06-22T08:36:25.593Z,64.00
2017-06-22T08:38:53.043Z,64.20
2017-06-22T08:41:20.478Z,64.50
2017-06-22T08:43:47.958Z,64.50
2017-06-22T08:46:15.398Z,64.30
2017-06-22T08:48:42.865Z,64.40
2017-06-22T08:51:10.321Z,64.20
2017-06-22T08:53:37.745Z,64.60
2017-06-22T08:56:05.174Z,64.60
2017-06-22T08:58:33.385Z,64.10
2017-06-22T09:01:00.865Z,64.50
2017-06-22T09:03:28.301Z,64.50
2017-06-22T09:05:55.734Z,64.50
2017-06-22T09:08:23.954Z,64.70
2017-06-22T09:10:51.377Z,64.70
2017-06-22T09:13:18.861Z,64.70
2017-06-22T09:15:46.285Z,64.80
2017-06-22T09:18:13.774Z,65.10
2017-06-22T09:20:41.235Z,64.80
2017-06-22T09:23:08.669Z,64.80
2017-06-22T09:25:36.093Z,64.60
2017-06-22T09:28:04.293Z,64.40
2017-06-22T09:30:31.774Z,64.40
2017-06-22T09:32:59.216Z,64.10
2017-06-22T09:35:26.642Z,63.80
2017-06-22T09:37:54.833Z,63.60
2017-06-22T09:40:22.310Z,63.50
2017-06-22T09:42:49.741Z,63.60
2017-06-22T09:45:17.173Z,63.70
2017-06-22T09:47:45.901Z,63.60
2017-06-22T09:50:13.329Z,63.50
2017-06-22T09:52:40.821Z,63.70
2017-06-22T09:55:08.278Z,63.90
2017-06-22T09:57:35.733Z,64.10
2017-06-22T10:00:03.169Z,64.10
2017-06-22T10:02:30.645Z,64.30
2017-06-22T10:04:58.086Z,64.70
2017-06-22T10:07:25.511Z,64.70
2017-06-22T10:09:53.713Z,64.70
2017-06-22T10:12:21.181Z,64.70
2017-06-22T10:14:48.642Z,64.20
2017-06-22T10:17:16.077Z,64.40
2017-06-22T10:19:43.514Z,64.30
2017-06-22T10:22:10.938Z,64.00
2017-06-22T10:24:38.465Z,63.90
2017-06-22T10:27:05.921Z,63.70
2017-06-22T10:29:33.369Z,63.60
2017-06-22T10:32:00.793Z,63.50
2017-06-22T10:34:28.905Z,63.40
2017-06-22T10:36:56.655Z,63.50
2017-06-22T10:39:24.102Z,63.50
2017-06-22T10:41:51.528Z,63.20
2017-06-22T10:44:19.835Z,63.10
2017-06-22T10:46:47.269Z,63.00
2017-06-22T10:49:14.765Z,63.30
2017-06-22T10:51:42.205Z,62.90
2017-06-22T10:54:09.630Z,62.70
2017-06-22T10:56:37.825Z,62.50
2017-06-22T10:59:05.305Z,62.50
2017-06-22T11:01:32.765Z,62.20
2017-06-22T11:04:00.221Z,62.80
2017-06-22T11:06:27.657Z,62.20
2017-06-22T11:08:55.082Z,62.70
2017-06-22T11:11:23.288Z,62.30
2017-06-22T11:13:50.705Z,62.30
2017-06-22T11:16:18.934Z,62.30
2017-06-22T11:18:46.361Z,62.20
2017-06-22T11:21:13.847Z,62.20
2017-06-22T11:23:41.279Z,62.00
2017-06-22T11:26:08.762Z,62.00
2017-06-22T11:28:36.185Z,62.30
2017-06-22T11:31:03.669Z,62.50
2017-06-22T11:33:31.097Z,61.70
2017-06-22T11:35:58.549Z,62.00
2017-06-22T11:38:26.285Z,61.70
2017-06-22T11:40:54.517Z,61.40
2017-06-22T11:43:21.949Z,61.50
2017-06-22T11:45:49.382Z,61.40
2017-06-22T11:48:17.581Z,61.30
2017-06-22T11:50:45.010Z,61.30
2017-06-22T11:53:13.231Z,61.50
2017-06-22T11:55:40.690Z,61.40
2017-06-22T11:58:08.121Z,61.20
2017-06-22T12:00:35.602Z,60.90
2017-06-22T12:03:03.053Z,60.60
2017-06-22T12:05:30.474Z,60.40
2017-06-22T12:07:57.909Z,60.60
2017-06-22T12:10:26.137Z,60.10
2017-06-22T12:12:53.599Z,60.10
2017-06-22T12:15:21.021Z,59.60
2017-06-22T12:17:48.501Z,59.60
2017-06-22T12:20:15.921Z,59.90
2017-06-22T12:22:43.421Z,59.80
2017-06-22T12:25:10.850Z,60.10
2017-06-22T12:27:38.281Z,60.20
2017-06-22T12:30:06.502Z,59.20
2017-06-22T12:32:33.946Z,59.20
2017-06-22T12:35:01.369Z,59.20
2017-06-22T12:37:29.561Z,59.50
2017-06-22T12:39:56.998Z,59.40
2017-06-22T12:42:25.218Z,59.00
2017-06-22T12:44:52.654Z,58.90
2017-06-22T12:47:20.077Z,59.40
2017-06-22T12:49:48.302Z,59.60
2017-06-22T12:52:15.730Z,59.50
2017-06-22T12:54:43.169Z,59.70
2017-06-22T12:57:11.361Z,60.00
2017-06-22T12:59:38.846Z,59.90
2017-06-22T13:02:06.270Z,60.00
2017-06-22T13:04:33.705Z,60.00
2017-06-22T13:07:02.722Z,60.20
2017-06-22T13:09:30.162Z,60.20
2017-06-22T13:11:57.661Z,60.30
2017-06-22T13:14:25.110Z,60.10
2017-06-22T13:16:52.569Z,60.30
2017-06-22T13:19:20.030Z,60.40
2017-06-22T13:21:47.453Z,60.40
2017-06-22T13:24:14.942Z,60.50
2017-06-22T13:26:42.377Z,60.40
2017-06-22T13:29:09.849Z,60.20
2017-06-22T13:31:37.305Z,60.40
2017-06-22T13:34:04.762Z,60.50
2017-06-22T13:36:32.197Z,60.60
2017-06-22T13:38:59.617Z,60.50
2017-06-22T13:41:27.845Z,60.40
2017-06-22T13:43:55.265Z,60.30
2017-06-22T13:46:22.755Z,60.50
2017-06-22T13:48:50.177Z,60.90
2017-06-22T13:51:17.669Z,60.90
2017-06-22T13:53:45.097Z,60.80
2017-06-22T13:56:12.533Z,61.20
2017-06-22T13:58:40.729Z,61.10
2017-06-22T14:01:08.169Z,61.10
2017-06-22T14:03:36.357Z,61.20
2017-06-22T14:06:03.847Z,61.10
2017-06-22T14:08:31.299Z,61.40
2017-06-22T14:10:58.757Z,61.40
2017-06-22T14:13:26.180Z,61.30
2017-06-22T14:15:53.669Z,61.20
2017-06-22T14:18:21.107Z,61.10
2017-06-22T14:20:48.769Z,61.20
2017-06-22T14:23:16.246Z,61.00
2017-06-22T14:25:43.701Z,61.40
2017-06-22T14:28:11.139Z,62.00
2017-06-22T14:30:38.606Z,62.30
2017-06-22T14:33:06.065Z,62.60
2017-06-22T14:35:33.517Z,63.70
2017-06-22T14:38:00.961Z,64.30
2017-06-22T14:40:28.429Z,66.10
2017-06-22T14:42:55.887Z,67.10
2017-06-22T14:45:23.314Z,68.00
2017-06-22T14:47:50.797Z,69.20
2017-06-22T14:50:18.225Z,69.20
2017-06-22T14:52:45.929Z,70.80
2017-06-22T14:55:13.770Z,71.00
2017-06-22T14:57:41.234Z,71.30
2017-06-22T15:00:08.657Z,71.70
2017-06-22T15:02:36.150Z,71.80
2017-06-22T15:05:03.577Z,71.60
2017-06-22T15:07:31.034Z,71.80
2017-06-22T15:09:58.518Z,72.00
2017-06-22T15:12:25.946Z,72.20
2017-06-22T15:14:53.385Z,72.30
2017-06-22T15:17:21.601Z,73.20
2017-06-22T15:19:49.054Z,73.20
2017-06-22T15:22:16.514Z,73.00
2017-06-22T15:24:43.970Z,72.80
2017-06-22T15:27:11.397Z,73.10
2017-06-22T15:29:38.882Z,72.80
2017-06-22T15:32:06.309Z,73.10
2017-06-22T15:34:33.751Z,73.10
2017-06-22T15:37:01.768Z,73.20
2017-06-22T15:39:29.210Z,73.30
2017-06-22T15:41:56.628Z,73.20
2017-06-22T15:44:24.830Z,73.10
2017-06-22T15:46:52.258Z,73.10
2017-06-22T15:49:20.478Z,72.80
2017-06-22T15:51:47.906Z,72.80
2017-06-22T15:54:15.329Z,73.20
2017-06-22T15:56:43.533Z,73.10
2017-06-22T15:59:11.014Z,72.90
2017-06-22T16:01:38.452Z,72.80
2017-06-22T16:04:05.894Z,72.70
2017-06-22T16:06:33.381Z,73.90
2017-06-22T16:09:00.838Z,73.90
2017-06-22T16:11:28.281Z,77.70
2017-06-22T16:13:55.753Z,80.60
2017-06-22T16:16:23.182Z,81.00
2017-06-22T16:18:50.614Z,81.10
2017-06-22T16:21:18.838Z,80.90
2017-06-22T16:23:46.289Z,80.80
2017-06-22T16:26:13.713Z,80.50
2017-06-22T16:28:41.305Z,79.60
2017-06-22T16:31:08.730Z,79.80
2017-06-22T16:33:36.163Z,80.00
2017-06-22T16:36:04.425Z,79.20
2017-06-22T16:38:31.949Z,79.20
2017-06-22T16:40:59.405Z,78.30
2017-06-22T16:43:26.838Z,78.00
2017-06-22T16:45:54.318Z,77.70
2017-06-22T16:48:21.773Z,78.40
2017-06-22T16:50:49.189Z,78.70
2017-06-22T16:53:17.426Z,78.20
2017-06-22T16:55:44.829Z,78.00
2017-06-22T16:58:12.396Z,78.10
2017-06-22T17:00:39.831Z,78.00
2017-06-22T17:03:07.241Z,78.70
2017-06-22T17:05:34.660Z,77.90
2017-06-22T17:08:02.862Z,78.50
2017-06-22T17:10:30.277Z,78.40
2017-06-22T17:12:57.765Z,78.00
2017-06-22T17:15:25.181Z,77.80
2017-06-22T17:17:52.638Z,77.60
2017-06-22T17:20:20.081Z,77.90
2017-06-22T17:22:48.130Z,78.20
2017-06-22T17:25:16.374Z,78.20
2017-06-22T17:27:43.801Z,78.50
2017-06-22T17:30:11.229Z,78.30
2017-06-22T17:32:38.817Z,78.10
2017-06-22T17:35:06.253Z,78.20
2017-06-22T17:37:33.669Z,78.20
2017-06-22T17:40:01.145Z,77.00
2017-06-22T17:42:28.585Z,77.50
2017-06-22T17:44:56.021Z,77.00
2017-06-22T17:47:23.444Z,77.00
2017-06-22T17:49:50.873Z,77.40
2017-06-22T17:52:18.424Z,78.00
2017-06-22T17:54:45.853Z,77.60
2017-06-22T17:57:13.332Z,77.80
2017-06-22T17:59:40.765Z,77.70
2017-06-22T18:02:08.213Z,77.90
2017-06-22T18:04:35.648Z,78.10
2017-06-22T18:07:03.094Z,78.20
2017-06-22T18:09:30.698Z,78.00
2017-06-22T18:11:58.181Z,77.70
2017-06-22T18:14:25.617Z,78.30
2017-06-22T18:16:53.098Z,78.40
2017-06-22T18:19:21.354Z,78.60
2017-06-22T18:21:49.761Z,78.70
2017-06-22T18:24:17.220Z,78.60
2017-06-22T18:26:44.648Z,78.80
2017-06-22T18:29:12.084Z,78.60
2017-06-22T18:31:39.946Z,78.70
2017-06-22T18:34:07.373Z,78.70
2017-06-22T18:36:34.804Z,78.60
2017-06-22T18:39:02.220Z,79.00
2017-06-22T18:41:29.657Z,78.90
2017-06-22T18:43:57.073Z,78.90
2017-06-22T18:46:24.501Z,79.10
2017-06-22T18:48:51.933Z,78.70
2017-06-22T18:51:19.360Z,78.70
2017-06-22T18:53:46.846Z,78.50
2017-06-22T18:56:14.261Z,78.60
2017-06-22T18:58:41.796Z,78.50
2017-06-22T19:01:09.245Z,78.30
2017-06-22T19:03:36.797Z,78.20
2017-06-22T19:06:04.245Z,78.20
2017-06-22T19:08:31.661Z,78.40
2017-06-22T19:10:59.089Z,78.50
2017-06-22T19:13:26.620Z,78.40
2017-06-22T19:15:54.949Z,78.60
2017-06-22T19:18:23.281Z,79.10
2017-06-22T19:20:50.698Z,78.70
2017-06-22T19:23:18.165Z,78.70
2017-06-22T19:25:45.585Z,78.70
2017-06-22T19:28:13.017Z,78.80
2017-06-22T19:30:40.446Z,78.70
2017-06-22T19:33:07.921Z,78.90
2017-06-22T19:35:35.437Z,78.40
2017-06-22T19:38:02.897Z,78.60
2017-06-22T19:40:30.317Z,78.40
2017-06-22T19:42:57.753Z,78.20
2017-06-22T19:45:25.169Z,78.40
2017-06-22T19:47:52.596Z,78.40
2017-06-22T19:50:20.021Z,78.50
2017-06-22T19:52:47.524Z,78.50
2017-06-22T19:55:14.948Z,78.70
2017-06-22T19:57:42.381Z,78.80
2017-06-22T20:00:09.806Z,78.60
2017-06-22T20:02:37.229Z,78.40
2017-06-22T20:05:04.652Z,78.10
2017-06-22T20:07:32.074Z,78.10
2017-06-22T20:09:59.500Z,78.10
2017-06-22T20:12:26.929Z,78.20
2017-06-22T20:14:54.364Z,78.30
2017-06-22T20:17:27.993Z,78.30
2017-06-22T20:20:01.496Z,78.50
2017-06-22T20:22:35.092Z,78.50
2017-06-22T20:25:08.645Z,78.50
2017-06-22T20:27:42.228Z,78.70
2017-06-22T20:30:15.753Z,78.90
2017-06-22T20:32:49.242Z,78.80
2017-06-22T20:35:22.936Z,78.40
2017-06-22T20:37:56.516Z,78.60
2017-06-22T20:40:30.267Z,78.60
2017-06-22T20:43:04.622Z,78.60
2017-06-22T20:45:38.100Z,78.50
2017-06-22T20:48:11.890Z,78.40
2017-06-22T20:50:45.489Z,78.30
2017-06-22T20:53:19.885Z,77.50
2017-06-22T20:55:54.384Z,77.60
2017-06-22T20:58:27.968Z,77.60
2017-06-22T21:01:01.677Z,77.40
2017-06-22T21:03:35.253Z,77.60
2017-06-22T21:06:08.861Z,77.50
2017-06-22T21:08:42.413Z,77.60
2017-06-22T21:11:16.024Z,77.50
2017-06-22T21:13:49.493Z,77.00
2017-06-22T21:16:23.146Z,77.50
2017-06-22T21:18:56.885Z,77.40
2017-06-22T21:21:30.601Z,77.40
2017-06-22T21:24:04.355Z,77.20
2017-06-22T21:26:38.857Z,77.80
2017-06-22T21:29:12.444Z,77.30
2017-06-22T21:31:46.333Z,77.10
2017-06-22T21:34:20.006Z,77.10
2017-06-22T21:36:53.501Z,77.30
2017-06-22T21:39:27.968Z,77.20
2017-06-22T21:42:01.589Z,77.20
2017-06-22T21:44:35.321Z,77.30
2017-06-22T21:47:09.649Z,77.10
2017-06-22T21:49:43.198Z,77.10
2017-06-22T21:52:16.839Z,76.90
2017-06-22T21:54:50.530Z,77.00
2017-06-22T21:57:24.009Z,77.50
2017-06-22T21:59:58.472Z,77.00
2017-06-22T22:02:31.997Z,76.90
2017-06-22T22:05:05.513Z,77.10
2017-06-22T22:07:39.213Z,77.00
2017-06-22T22:10:13.541Z,76.90
2017-06-22T22:12:47.253Z,76.70
2017-06-22T22:15:20.825Z,76.80
2017-06-22T22:17:54.592Z,76.70
2017-06-22T22:20:28.364Z,76.00
2017-06-22T22:23:01.901Z,76.40
2017-06-22T22:25:36.260Z,76.20
2017-06-22T22:28:10.028Z,76.10
2017-06-22T22:30:43.673Z,76.50
2017-06-22T22:33:17.358Z,76.70
2017-06-22T22:35:51.046Z,76.00
2017-06-22T22:38:24.628Z,76.30
2017-06-22T22:40:58.277Z,76.20
2017-06-22T22:43:31.892Z,75.90
2017-06-22T22:46:05.420Z,75.80
2017-06-22T22:48:39.116Z,75.80
2017-06-22T22:51:12.752Z,76.00
2017-06-22T22:53:46.540Z,75.50
2017-06-22T22:56:20.121Z,73.80
2017-06-22T22:58:53.704Z,74.80
2017-06-22T23:01:27.368Z,73.80
2017-06-22T23:04:00.989Z,74.30
2017-06-22T23:06:34.554Z,73.90
2017-06-22T23:09:08.145Z,73.70
2017-06-22T23:11:41.676Z,73.50
2017-06-22T23:14:15.412Z,72.40
2017-06-22T23:16:48.984Z,72.50
2017-06-22T23:19:23.376Z,70.80
2017-06-22T23:21:56.972Z,70.80
2017-06-22T23:24:30.717Z,69.60
2017-06-22T23:27:04.464Z,70.10
2017-06-22T23:29:38.045Z,68.80
2017-06-22T23:32:11.605Z,68.90
2017-06-22T23:34:45.213Z,67.90
2017-06-22T23:37:18.767Z,68.30
2017-06-22T23:39:52.381Z,67.50
2017-06-22T23:42:26.044Z,68.00
2017-06-22T23:44:59.648Z,67.30
2017-06-22T23:47:33.232Z,67.60
2017-06-22T23:50:06.906Z,66.90
2017-06-22T23:52:40.460Z,67.00
2017-06-22T23:55:14.193Z,66.50
2017-06-22T23:57:47.773Z,66.30
